METAR Data
IDs: Format: Raw Decoded Include TAF

Data at: 0210 UTC 25 Feb 2021

KLRY 250155Z AUTO 36006KT OVC033 05/00 A3031 RMK AO2